Time;durP1;ratioP1;P1;durP2;ratioP2;P2;SDS_P1;SDS_P2;PMS_P1;PMS_P2;Temp;Humidity;BMP_temperature;BMP_pressure;BME280_temperature;BME280_humidity;BME280_pressure;Samples;Min_cycle;Max_cycle;Signal;HPM_P1;HPM_P2
2021/12/29 00:01:39;;;;;;;1.00;1.00;;;21.70;42.20;;;;;;5042814;28;43495;-64
2021/12/29 00:04:07;;;;;;;1.30;1.25;;;21.70;42.20;;;;;;5040410;28;43479;-63
2021/12/29 00:06:34;;;;;;;1.10;1.10;;;21.70;42.20;;;;;;5042609;28;43645;-63
2021/12/29 00:09:02;;;;;;;1.13;1.02;;;21.70;42.20;;;;;;5042568;28;43444;-64
2021/12/29 00:11:31;;;;;;;1.23;1.17;;;21.60;42.20;;;;;;5041387;28;43428;-63
2021/12/29 00:13:59;;;;;;;1.85;1.00;;;21.60;42.20;;;;;;5042516;28;43484;-62
2021/12/29 00:16:29;;;;;;;0.90;0.90;;;21.60;42.30;;;;;;5074808;27;43931;-63
2021/12/29 00:18:56;;;;;;;1.00;1.00;;;21.60;42.30;;;;;;5043014;28;44121;-64
2021/12/29 00:21:23;;;;;;;0.80;0.80;;;21.60;42.30;;;;;;5041589;28;43452;-63
2021/12/29 00:23:51;;;;;;;0.95;0.90;;;21.60;42.30;;;;;;5040207;28;43433;-63
2021/12/29 00:26:28;;;;;;;1.00;1.00;;;21.50;42.20;;;;;;5042466;28;43798;-63
2021/12/29 00:28:58;;;;;;;1.15;1.05;;;21.50;42.20;;;;;;5043087;28;43927;-63
2021/12/29 00:31:31;;;;;;;1.00;1.00;;;21.50;42.30;;;;;;5045953;28;43466;-63
2021/12/29 00:34:19;;;;;;;1.20;1.20;;;21.50;42.30;;;;;;5046298;28;43460;-64
2021/12/29 00:37:21;;;;;;;1.00;1.00;;;21.50;42.30;;;;;;5037446;28;43791;-62
2021/12/29 00:40:09;;;;;;;0.80;0.80;;;21.50;42.30;;;;;;5076543;27;43562;-64
2021/12/29 00:42:56;;;;;;;1.10;1.10;;;21.50;42.40;;;;;;5045835;28;43473;-64
2021/12/29 00:45:44;;;;;;;1.20;1.17;;;21.50;42.40;;;;;;5046113;28;43500;-64
2021/12/29 00:48:17;;;;;;;1.13;1.10;;;21.40;42.30;;;;;;5078155;28;43763;-63
2021/12/29 00:50:45;;;;;;;0.90;0.90;;;21.40;42.40;;;;;;5046250;28;43990;-64
2021/12/29 00:53:13;;;;;;;0.90;0.90;;;21.40;42.40;;;;;;5045895;28;43534;-63
2021/12/29 00:55:40;;;;;;;0.80;0.80;;;21.40;42.40;;;;;;5042304;28;43519;-62
2021/12/29 00:58:08;;;;;;;0.93;0.90;;;21.40;42.40;;;;;;5045690;28;43565;-64
2021/12/29 01:00:37;;;;;;;0.80;0.80;;;21.40;42.40;;;;;;5045854;28;43367;-63
2021/12/29 01:03:05;;;;;;;1.00;1.00;;;21.40;42.50;;;;;;5045975;28;43520;-63
2021/12/29 01:05:33;;;;;;;1.05;0.98;;;21.40;42.40;;;;;;5078290;28;43597;-63
2021/12/29 01:08:01;;;;;;;1.10;1.10;;;21.30;42.40;;;;;;5045036;28;44968;-64
2021/12/29 01:10:28;;;;;;;0.90;0.90;;;21.30;42.40;;;;;;5044809;28;43452;-64
2021/12/29 01:12:59;;;;;;;1.10;1.10;;;21.30;42.40;;;;;;5078121;28;43472;-64
2021/12/29 01:15:33;;;;;;;1.27;0.68;;;21.30;42.40;;;;;;5078841;28;43398;-64
2021/12/29 01:18:05;;;;;;;0.88;0.88;;;21.30;42.40;;;;;;5051104;28;43778;-64
2021/12/29 01:20:33;;;;;;;1.15;1.05;;;21.30;42.50;;;;;;5044317;28;43530;-63
2021/12/29 01:23:01;;;;;;;1.10;1.10;;;21.30;42.40;;;;;;5043411;28;43436;-64
2021/12/29 01:25:29;;;;;;;1.45;1.10;;;21.30;42.50;;;;;;5044538;28;43444;-63
2021/12/29 01:27:57;;;;;;;0.95;0.95;;;21.20;42.40;;;;;;5044043;28;44036;-63
2021/12/29 01:30:24;;;;;;;0.98;0.98;;;21.30;42.50;;;;;;5044432;28;43402;-63
2021/12/29 01:32:52;;;;;;;1.10;1.10;;;21.20;42.40;;;;;;5077242;28;43541;-64
2021/12/29 01:35:19;;;;;;;1.15;1.05;;;21.20;42.50;;;;;;5077976;27;43610;-63
2021/12/29 01:37:47;;;;;;;0.80;0.80;;;21.20;42.50;;;;;;5043303;28;43952;-62
2021/12/29 01:40:18;;;;;;;0.70;0.70;;;21.20;42.50;;;;;;5045238;28;43424;-64
2021/12/29 01:42:46;;;;;;;0.80;0.80;;;21.20;43.20;;;;;;5044639;28;43553;-64
2021/12/29 01:45:14;;;;;;;0.75;0.75;;;21.20;42.50;;;;;;5045105;28;43491;-63
2021/12/29 01:47:41;;;;;;;0.90;0.90;;;21.20;42.50;;;;;;5044529;28;44033;-64
2021/12/29 01:50:11;;;;;;;0.85;0.85;;;21.20;42.50;;;;;;5045120;28;43569;-63
2021/12/29 01:52:40;;;;;;;0.82;0.82;;;21.10;42.50;;;;;;5076792;28;43517;-62
2021/12/29 01:55:14;;;;;;;0.75;0.75;;;21.20;42.50;;;;;;5033729;28;43449;-62
2021/12/29 01:57:42;;;;;;;0.80;0.80;;;21.10;42.50;;;;;;5044155;28;43741;-63
2021/12/29 02:00:17;;;;;;;0.60;0.60;;;21.10;42.50;;;;;;5043736;28;44815;-64
2021/12/29 02:02:46;;;;;;;0.90;0.90;;;21.10;42.50;;;;;;5041455;28;43423;-62
2021/12/29 02:05:14;;;;;;;0.77;0.77;;;21.10;42.50;;;;;;5045281;28;43482;-63
2021/12/29 02:07:42;;;;;;;0.77;0.77;;;21.10;42.60;;;;;;5044372;28;43567;-64
2021/12/29 02:10:11;;;;;;;0.70;0.70;;;21.10;42.50;;;;;;5040653;28;43536;-63
2021/12/29 02:12:41;;;;;;;0.90;0.90;;;21.10;42.60;;;;;;5076906;27;43493;-63
2021/12/29 02:15:10;;;;;;;0.98;0.90;;;21.00;42.50;;;;;;5045370;28;43479;-62
2021/12/29 02:17:38;;;;;;;0.80;0.80;;;21.10;42.60;;;;;;5043994;28;43782;-63
2021/12/29 02:20:11;;;;;;;0.52;0.52;;;21.00;42.50;;;;;;5077247;28;43453;-63
2021/12/29 02:22:51;;;;;;;0.90;0.90;;;21.00;42.50;;;;;;5067912;28;43497;-63
2021/12/29 02:25:32;;;;;;;1.10;1.10;;;21.00;42.60;;;;;;5043755;28;43450;-63
2021/12/29 02:28:02;;;;;;;1.10;1.00;;;21.00;42.60;;;;;;5041175;28;43568;-63
2021/12/29 02:30:29;;;;;;;1.20;1.10;;;21.00;42.60;;;;;;5043354;28;43411;-63
2021/12/29 02:33:02;;;;;;;1.00;1.00;;;21.00;42.60;;;;;;5042707;28;43549;-65
2021/12/29 02:35:30;;;;;;;1.35;1.30;;;21.00;42.70;;;;;;5043587;28;43551;-63
2021/12/29 02:37:59;;;;;;;1.13;1.02;;;21.00;42.60;;;;;;5044020;28;43939;-63
2021/12/29 02:40:29;;;;;;;0.90;0.90;;;20.90;42.60;;;;;;5043016;28;43625;-62
2021/12/29 02:42:56;;;;;;;0.93;0.93;;;20.90;42.60;;;;;;5043058;28;43478;-63
2021/12/29 02:45:26;;;;;;;0.90;0.90;;;20.90;42.60;;;;;;5041790;28;43460;-63
2021/12/29 02:47:55;;;;;;;0.98;0.98;;;20.90;42.60;;;;;;5041124;28;44062;-62
2021/12/29 02:50:23;;;;;;;0.90;0.90;;;20.90;42.60;;;;;;5044371;28;43462;-63
2021/12/29 02:52:50;;;;;;;0.90;0.90;;;20.90;42.60;;;;;;5075882;27;43514;-63
2021/12/29 02:55:18;;;;;;;1.08;1.00;;;20.90;42.80;;;;;;5042798;28;43515;-62
2021/12/29 02:57:45;;;;;;;1.25;1.15;;;20.90;42.70;;;;;;5043758;28;43823;-63
2021/12/29 03:00:15;;;;;;;1.00;1.00;;;20.90;42.70;;;;;;5042594;28;43535;-64
2021/12/29 03:02:42;;;;;;;0.90;0.90;;;20.90;42.70;;;;;;5043601;28;43460;-64
2021/12/29 03:05:10;;;;;;;1.00;1.00;;;20.90;42.70;;;;;;5076624;28;43653;-63
2021/12/29 03:07:37;;;;;;;1.00;1.00;;;20.90;42.70;;;;;;5076081;28;44205;-64
2021/12/29 03:10:05;;;;;;;0.80;0.80;;;20.80;42.70;;;;;;5043296;28;43376;-62
2021/12/29 03:12:33;;;;;;;1.20;1.10;;;20.80;42.70;;;;;;5042678;28;43574;-64
2021/12/29 03:15:00;;;;;;;1.20;1.20;;;20.90;42.80;;;;;;5042279;28;43591;-63
2021/12/29 03:17:30;;;;;;;0.93;0.93;;;20.80;42.70;;;;;;5043483;28;43608;-63
2021/12/29 03:19:57;;;;;;;1.15;1.02;;;20.80;42.70;;;;;;5043431;28;43451;-63
2021/12/29 03:22:25;;;;;;;0.82;0.82;;;20.80;42.80;;;;;;5043666;28;43567;-63
2021/12/29 03:24:52;;;;;;;1.25;1.15;;;20.80;42.80;;;;;;5040415;28;43498;-63
2021/12/29 03:27:20;;;;;;;1.00;1.00;;;20.80;42.80;;;;;;5075674;28;45317;-64
2021/12/29 03:29:47;;;;;;;1.30;1.20;;;20.80;42.70;;;;;;5042104;28;43970;-64
2021/12/29 03:32:23;;;;;;;1.10;1.00;;;20.80;42.80;;;;;;5041914;28;43480;-63
2021/12/29 03:34:50;;;;;;;0.90;0.90;;;20.80;42.80;;;;;;5042381;28;43455;-63
2021/12/29 03:37:17;;;;;;;1.02;0.90;;;20.70;42.70;;;;;;5076006;28;43953;-64
2021/12/29 03:39:45;;;;;;;1.13;1.13;;;20.80;42.80;;;;;;5041953;28;44030;-64
2021/12/29 03:42:12;;;;;;;1.15;1.10;;;20.70;42.70;;;;;;5042031;28;43546;-65
2021/12/29 03:44:40;;;;;;;1.30;1.20;;;20.70;42.80;;;;;;5075483;27;43557;-64
2021/12/29 03:47:08;;;;;;;1.02;1.02;;;20.70;42.80;;;;;;5040210;28;43874;-63
2021/12/29 03:49:36;;;;;;;1.30;1.10;;;20.70;42.80;;;;;;5041754;28;44274;-63
2021/12/29 03:52:05;;;;;;;1.25;1.10;;;20.70;42.80;;;;;;5043462;28;43381;-63
2021/12/29 03:54:33;;;;;;;1.08;1.05;;;20.70;42.80;;;;;;5074716;27;43551;-63
2021/12/29 03:57:02;;;;;;;1.13;1.02;;;20.70;42.80;;;;;;5040052;28;43596;-63
2021/12/29 03:59:29;;;;;;;0.90;0.90;;;20.70;42.80;;;;;;5042700;28;43574;-64
2021/12/29 04:01:57;;;;;;;1.00;1.00;;;20.70;42.80;;;;;;5043309;28;43472;-63
2021/12/29 04:04:25;;;;;;;1.10;1.10;;;20.60;42.80;;;;;;5044308;28;43525;-64
2021/12/29 04:06:53;;;;;;;1.20;1.20;;;20.70;42.80;;;;;;5074511;28;43901;-63
2021/12/29 04:09:21;;;;;;;1.00;0.90;;;20.60;42.80;;;;;;5044877;28;43479;-64
2021/12/29 04:11:50;;;;;;;1.05;1.05;;;20.60;42.80;;;;;;5045397;28;43481;-63
2021/12/29 04:14:20;;;;;;;1.00;1.00;;;20.60;42.80;;;;;;5044937;28;43439;-63
2021/12/29 04:16:48;;;;;;;0.90;0.90;;;20.60;42.80;;;;;;5046107;28;43815;-63
2021/12/29 04:19:28;;;;;;;0.90;0.90;;;20.60;42.80;;;;;;5046364;28;43976;-64
2021/12/29 04:21:58;;;;;;;0.90;0.90;;;20.60;42.90;;;;;;5046652;28;43446;-64
2021/12/29 04:24:25;;;;;;;0.90;0.90;;;20.60;42.90;;;;;;5045401;28;43396;-64
2021/12/29 04:26:53;;;;;;;1.13;1.08;;;20.50;42.90;;;;;;5046740;28;43784;-63
2021/12/29 04:29:20;;;;;;;1.10;1.08;;;20.60;42.90;;;;;;5046344;28;43474;-63
2021/12/29 04:31:49;;;;;;;1.10;1.10;;;20.50;42.90;;;;;;5045409;28;43562;-64
2021/12/29 04:34:16;;;;;;;1.20;1.10;;;20.50;42.90;;;;;;5078559;27;43707;-64
2021/12/29 04:36:44;;;;;;;1.42;1.33;;;20.50;42.90;;;;;;5044929;28;43938;-63
2021/12/29 04:39:11;;;;;;;1.10;1.10;;;20.50;42.90;;;;;;5045930;28;43457;-63
2021/12/29 04:41:39;;;;;;;0.90;0.90;;;20.50;43.00;;;;;;5078565;28;43514;-63
2021/12/29 04:44:06;;;;;;;0.93;0.93;;;20.50;42.90;;;;;;5078738;27;43460;-64
2021/12/29 04:46:44;;;;;;;1.13;1.10;;;20.50;42.90;;;;;;5044675;28;43940;-62
2021/12/29 04:49:13;;;;;;;1.10;1.10;;;20.50;42.90;;;;;;5043785;28;43515;-64
2021/12/29 04:51:48;;;;;;;1.00;1.00;;;20.50;42.90;;;;;;5078388;28;43501;-64
2021/12/29 04:54:16;;;;;;;1.23;1.20;;;20.50;42.90;;;;;;5043297;28;43440;-63
2021/12/29 04:56:44;;;;;;;1.00;1.00;;;20.50;43.00;;;;;;5042694;28;44891;-64
2021/12/29 04:59:12;;;;;;;1.00;1.00;;;20.50;42.90;;;;;;5045600;28;43698;-64
2021/12/29 05:01:40;;;;;;;1.02;1.02;;;20.40;42.90;;;;;;5045814;28;43524;-64
2021/12/29 05:04:08;;;;;;;0.85;0.80;;;20.40;42.90;;;;;;5046085;28;43447;-63
2021/12/29 05:09:21;;;;;;;1.10;1.10;;;20.50;43.60;;;;;;5077470;27;43568;-63
2021/12/29 05:11:49;;;;;;;1.20;1.17;;;20.50;43.00;;;;;;5043829;28;43515;-64
2021/12/29 05:14:17;;;;;;;0.90;0.90;;;20.40;42.90;;;;;;5044637;28;44012;-64
2021/12/29 05:16:44;;;;;;;1.10;1.10;;;20.40;42.90;;;;;;5043662;28;43993;-62
2021/12/29 05:19:12;;;;;;;1.20;0.82;;;20.40;42.90;;;;;;5045708;28;43638;-64
2021/12/29 05:21:39;;;;;;;0.90;0.90;;;20.40;43.00;;;;;;5045153;28;43463;-64
2021/12/29 05:24:07;;;;;;;1.00;1.00;;;20.40;43.00;;;;;;5044685;28;43447;-64
2021/12/29 05:26:35;;;;;;;0.90;0.90;;;20.40;42.90;;;;;;5077152;28;43820;-63
2021/12/29 05:29:03;;;;;;;1.02;1.02;;;20.40;43.00;;;;;;5043972;28;43988;-63
2021/12/29 05:31:30;;;;;;;1.00;1.00;;;20.40;43.00;;;;;;5045126;28;43359;-63
2021/12/29 05:33:58;;;;;;;1.00;1.00;;;20.40;43.00;;;;;;5044678;28;43567;-64
2021/12/29 05:36:26;;;;;;;1.00;1.00;;;20.40;43.00;;;;;;5043428;28;43950;-64
2021/12/29 05:38:55;;;;;;;0.95;0.95;;;20.40;43.00;;;;;;5045242;28;43442;-64
2021/12/29 05:41:22;;;;;;;1.20;1.10;;;20.40;43.00;;;;;;5044857;28;43466;-63
2021/12/29 05:43:50;;;;;;;0.90;0.90;;;20.30;43.00;;;;;;5075333;28;43468;-63
2021/12/29 05:46:18;;;;;;;1.20;1.20;;;20.30;43.10;;;;;;5043238;28;45414;-62
2021/12/29 05:48:46;;;;;;;1.05;1.05;;;20.30;43.00;;;;;;5044915;28;43495;-64
2021/12/29 05:51:13;;;;;;;1.17;1.17;;;20.30;43.00;;;;;;5045280;28;43398;-64
2021/12/29 05:53:42;;;;;;;1.23;1.13;;;20.30;43.10;;;;;;5044280;28;43518;-64
2021/12/29 05:56:10;;;;;;;0.90;0.90;;;20.30;43.00;;;;;;5044386;28;43785;-63
2021/12/29 05:58:38;;;;;;;1.00;1.00;;;20.30;43.00;;;;;;5077695;28;43693;-63
2021/12/29 06:01:05;;;;;;;1.00;1.00;;;20.30;43.10;;;;;;5045237;28;43546;-62
2021/12/29 06:03:33;;;;;;;1.00;1.00;;;20.30;43.10;;;;;;5045027;28;43570;-63
2021/12/29 06:06:00;;;;;;;1.00;1.00;;;20.30;43.10;;;;;;5043395;28;46059;-64
2021/12/29 06:08:28;;;;;;;1.30;1.20;;;20.20;43.00;;;;;;5076931;28;44996;-64
2021/12/29 06:10:55;;;;;;;1.15;1.15;;;20.20;43.00;;;;;;5044228;28;43472;-63
2021/12/29 06:13:23;;;;;;;1.30;1.30;;;20.20;43.10;;;;;;5045536;28;43471;-63
2021/12/29 06:15:50;;;;;;;1.02;1.02;;;20.20;43.10;;;;;;5042892;28;44012;-64
2021/12/29 06:18:18;;;;;;;1.10;1.10;;;20.20;43.10;;;;;;5043015;28;43982;-64
2021/12/29 06:20:45;;;;;;;1.60;1.50;;;20.20;43.20;;;;;;5044196;28;43524;-63
2021/12/29 06:23:13;;;;;;;1.40;1.30;;;20.20;43.10;;;;;;5042919;28;43540;-65
2021/12/29 06:25:41;;;;;;;1.42;1.33;;;20.20;43.20;;;;;;5043564;28;43784;-64
2021/12/29 06:28:09;;;;;;;1.20;1.10;;;20.20;43.20;;;;;;5076779;28;43683;-64
2021/12/29 06:30:36;;;;;;;1.20;1.20;;;20.20;43.20;;;;;;5042973;28;43476;-63
2021/12/29 06:33:04;;;;;;;1.20;1.10;;;20.20;43.20;;;;;;5043340;28;43520;-63
2021/12/29 06:35:31;;;;;;;1.20;1.17;;;20.20;43.20;;;;;;5042833;28;44161;-64
2021/12/29 06:37:59;;;;;;;1.33;1.27;;;20.20;43.20;;;;;;5044358;28;43406;-63
2021/12/29 06:40:26;;;;;;;1.58;1.48;;;20.20;43.20;;;;;;5044656;28;43498;-63
2021/12/29 06:42:54;;;;;;;1.50;1.40;;;20.20;43.20;;;;;;5042680;28;43500;-64
2021/12/29 06:45:26;;;;;;;1.25;1.20;;;20.20;43.20;;;;;;5042748;28;44946;-63
2021/12/29 06:47:54;;;;;;;1.45;1.35;;;20.20;43.20;;;;;;5044531;28;43545;-63
2021/12/29 06:50:22;;;;;;;1.20;1.20;;;20.10;43.10;;;;;;5042977;28;43433;-63
2021/12/29 06:52:49;;;;;;;1.55;1.45;;;20.20;43.20;;;;;;5042645;28;43510;-64
2021/12/29 06:55:17;;;;;;;1.25;1.25;;;20.10;43.20;;;;;;5043090;28;44101;-63
2021/12/29 06:57:49;;;;;;;1.50;1.40;;;20.10;43.20;;;;;;5042682;28;43421;-64
2021/12/29 07:00:16;;;;;;;1.60;1.50;;;20.10;43.20;;;;;;5044509;28;43460;-64
2021/12/29 07:02:44;;;;;;;1.13;1.13;;;20.10;43.20;;;;;;5044929;28;43460;-64
2021/12/29 07:05:12;;;;;;;1.50;1.40;;;20.10;43.30;;;;;;5076778;28;44965;-63
2021/12/29 07:07:42;;;;;;;1.63;1.52;;;20.10;43.30;;;;;;5075771;28;43504;-64
2021/12/29 07:10:09;;;;;;;1.70;1.60;;;20.10;43.30;;;;;;5042586;28;43472;-64
2021/12/29 07:12:37;;;;;;;1.55;1.45;;;20.10;43.30;;;;;;5042140;28;43516;-64
2021/12/29 07:15:06;;;;;;;1.50;1.40;;;20.10;43.30;;;;;;5076461;28;43631;-63
2021/12/29 07:17:33;;;;;;;1.90;1.80;;;20.10;43.30;;;;;;5075684;28;43415;-63
2021/12/29 07:20:01;;;;;;;1.75;1.65;;;20.10;43.30;;;;;;5076570;27;43424;-63
2021/12/29 07:22:28;;;;;;;2.00;1.90;;;20.20;43.30;;;;;;5043662;28;43420;-63
2021/12/29 07:24:56;;;;;;;1.70;1.60;;;20.10;43.30;;;;;;5075997;28;44180;-64
2021/12/29 07:27:23;;;;;;;1.67;1.58;;;20.20;43.40;;;;;;5042162;28;43450;-64
2021/12/29 07:29:52;;;;;;;1.88;1.77;;;20.20;43.30;;;;;;5042565;28;43419;-63
2021/12/29 07:32:19;;;;;;;1.75;1.65;;;20.20;43.40;;;;;;5042384;28;43463;-65
2021/12/29 07:34:47;;;;;;;1.75;1.65;;;20.20;43.50;;;;;;5058774;28;43943;-65
2021/12/29 07:37:14;;;;;;;1.75;1.65;;;20.20;43.50;;;;;;5075570;27;43729;-64
2021/12/29 07:39:42;;;;;;;2.00;1.90;;;20.20;43.50;;;;;;5042193;28;43447;-64
2021/12/29 07:42:09;;;;;;;1.90;1.80;;;20.20;43.50;;;;;;5043060;28;43408;-65
2021/12/29 07:44:45;;;;;;;1.67;1.58;;;20.20;43.50;;;;;;5058810;28;44238;-64
2021/12/29 07:47:13;;;;;;;1.70;1.60;;;20.20;43.50;;;;;;5034012;28;44222;-64
2021/12/29 07:49:41;;;;;;;1.70;1.60;;;20.20;43.50;;;;;;5042127;28;43538;-64
2021/12/29 07:52:09;;;;;;;1.70;1.60;;;20.20;43.60;;;;;;5041792;28;43502;-64
2021/12/29 07:54:36;;;;;;;1.85;1.55;;;20.20;43.50;;;;;;5041539;28;43938;-65
2021/12/29 07:57:04;;;;;;;1.50;1.40;;;20.20;43.50;;;;;;5041911;28;43845;-63
2021/12/29 07:59:31;;;;;;;1.60;1.50;;;20.30;43.50;;;;;;5043621;28;43423;-63
2021/12/29 08:01:59;;;;;;;1.40;1.35;;;20.30;43.50;;;;;;5041219;28;43475;-63
2021/12/29 08:04:26;;;;;;;1.45;1.35;;;20.30;43.40;;;;;;5043161;28;44061;-64
2021/12/29 08:06:54;;;;;;;1.48;1.38;;;20.30;43.50;;;;;;5041650;28;43523;-64
2021/12/29 08:09:21;;;;;;;1.50;1.40;;;20.30;43.50;;;;;;5075799;28;43498;-65
2021/12/29 08:11:50;;;;;;;1.45;1.35;;;20.30;43.50;;;;;;5041939;28;43454;-64
2021/12/29 08:14:18;;;;;;;1.33;1.33;;;20.30;43.50;;;;;;5041201;28;43604;-64
2021/12/29 08:16:46;;;;;;;1.58;1.48;;;20.40;43.50;;;;;;5041612;28;43681;-63
2021/12/29 08:19:14;;;;;;;1.50;1.40;;;20.40;43.40;;;;;;5041448;28;43435;-64
2021/12/29 08:21:43;;;;;;;1.58;1.48;;;20.40;43.50;;;;;;5039949;28;43533;-64
2021/12/29 08:24:10;;;;;;;1.55;1.45;;;20.40;43.50;;;;;;5038663;28;43695;-65
2021/12/29 08:26:38;;;;;;;1.33;1.33;;;20.40;43.30;;;;;;5039878;28;43634;-64
2021/12/29 08:29:05;;;;;;;1.50;1.40;;;20.40;43.40;;;;;;5042226;28;43415;-64
2021/12/29 08:31:33;;;;;;;1.50;1.40;;;20.50;43.50;;;;;;5042221;28;43447;-64
2021/12/29 08:34:00;;;;;;;1.35;1.25;;;20.50;43.50;;;;;;5042506;28;43806;-63
2021/12/29 08:36:28;;;;;;;1.45;1.35;;;20.50;43.50;;;;;;5042788;28;43529;-63
2021/12/29 08:38:56;;;;;;;1.30;1.30;;;20.50;43.40;;;;;;5036780;28;43439;-63
2021/12/29 08:41:23;;;;;;;1.77;1.67;;;20.50;43.50;;;;;;5039801;28;43522;-64
2021/12/29 08:43:51;;;;;;;1.38;1.38;;;20.50;43.50;;;;;;5040136;28;44657;-64
2021/12/29 08:46:18;;;;;;;1.27;1.27;;;20.50;43.50;;;;;;5072347;28;44674;-63
2021/12/29 08:48:46;;;;;;;1.52;1.42;;;20.60;43.50;;;;;;5036121;28;43472;-64
2021/12/29 08:51:15;;;;;;;1.52;1.42;;;20.60;43.60;;;;;;5038656;28;43512;-64
2021/12/29 08:53:44;;;;;;;1.70;1.30;;;20.60;43.50;;;;;;5076342;27;43945;-63
2021/12/29 08:56:14;;;;;;;1.42;1.35;;;20.60;43.60;;;;;;5042837;28;43597;-63
2021/12/29 08:58:42;;;;;;;1.20;1.20;;;20.70;43.60;;;;;;5043810;28;43510;-64
2021/12/29 09:01:10;;;;;;;1.27;1.27;;;20.60;43.60;;;;;;5043794;28;43532;-63
2021/12/29 09:03:38;;;;;;;2.15;1.30;;;20.70;43.60;;;;;;5043895;28;43893;-63
2021/12/29 09:06:06;;;;;;;1.30;1.20;;;20.70;43.60;;;;;;5042081;28;44120;-65
2021/12/29 09:08:33;;;;;;;1.48;1.38;;;20.70;43.50;;;;;;5043181;28;43487;-63
2021/12/29 09:11:00;;;;;;;0.98;0.98;;;20.70;43.60;;;;;;5040622;28;43458;-63
2021/12/29 09:13:28;;;;;;;1.23;1.23;;;20.70;43.50;;;;;;5043793;28;43909;-64
2021/12/29 09:15:57;;;;;;;1.15;1.15;;;20.70;43.50;;;;;;5040292;28;43523;-64
2021/12/29 09:18:26;;;;;;;1.10;1.10;;;20.70;43.50;;;;;;5043519;28;43531;-63
2021/12/29 09:20:56;;;;;;;1.23;1.17;;;20.70;43.50;;;;;;5074044;28;43447;-63
2021/12/29 09:23:24;;;;;;;1.10;1.10;;;20.80;43.50;;;;;;5075682;28;44678;-63
2021/12/29 09:25:53;;;;;;;1.10;1.10;;;20.80;43.50;;;;;;5037224;28;43439;-64
2021/12/29 09:28:22;;;;;;;0.90;0.90;;;20.80;43.60;;;;;;5039892;28;43514;-63
2021/12/29 09:30:51;;;;;;;1.40;1.40;;;20.80;43.50;;;;;;5043372;28;44110;-64
2021/12/29 09:33:22;;;;;;;1.13;1.13;;;20.80;43.50;;;;;;5043527;28;45295;-63
2021/12/29 09:35:56;;;;;;;1.20;1.20;;;20.90;43.50;;;;;;5043172;28;43442;-64
2021/12/29 09:38:24;;;;;;;1.30;1.30;;;20.90;43.50;;;;;;5042312;28;43472;-63
2021/12/29 09:40:52;;;;;;;1.30;1.20;;;20.80;43.50;;;;;;5041376;28;43542;-63
2021/12/29 09:43:21;;;;;;;1.13;1.13;;;20.90;43.40;;;;;;5041659;28;43973;-62
2021/12/29 09:45:49;;;;;;;1.02;1.02;;;20.90;43.40;;;;;;5040097;28;43462;-63
2021/12/29 09:48:18;;;;;;;1.58;1.48;;;20.90;43.50;;;;;;5043219;28;43521;-64
2021/12/29 09:50:47;;;;;;;1.48;1.38;;;21.00;43.50;;;;;;5071684;27;43585;-64
2021/12/29 09:53:15;;;;;;;1.48;1.38;;;21.00;43.40;;;;;;5041552;28;43960;-63
2021/12/29 09:55:44;;;;;;;1.20;1.20;;;21.00;43.50;;;;;;5041731;28;43530;-64
2021/12/29 09:58:13;;;;;;;1.08;0.98;;;21.00;43.50;;;;;;5041670;28;43529;-63
2021/12/29 10:00:48;;;;;;;1.15;1.15;;;21.00;43.50;;;;;;5074939;28;43466;-62
2021/12/29 10:03:18;;;;;;;1.23;1.23;;;21.00;43.50;;;;;;5041294;28;43861;-63
2021/12/29 10:05:49;;;;;;;1.50;1.40;;;21.00;43.60;;;;;;5024878;28;43627;-62
2021/12/29 10:08:28;;;;;;;1.65;1.27;;;21.00;43.50;;;;;;5074520;28;43481;-62
2021/12/29 10:10:59;;;;;;;1.25;1.15;;;21.10;43.50;;;;;;5041706;28;43495;-63
2021/12/29 10:13:30;;;;;;;;;;;21.10;43.60;;;;;;5043792;28;44691;-63
2021/12/29 10:16:08;;;;;;;1.52;1.35;;;21.00;43.60;;;;;;5073103;27;43438;-64
2021/12/29 10:18:37;;;;;;;0.95;0.95;;;21.10;43.70;;;;;;5042378;28;43427;-63
2021/12/29 10:21:08;;;;;;;1.17;1.10;;;21.10;44.30;;;;;;5042047;28;43516;-63
2021/12/29 10:23:39;;;;;;;1.27;1.27;;;21.10;43.60;;;;;;5041101;28;43532;-63
2021/12/29 10:26:31;;;;;;;1.75;1.25;;;21.10;43.70;;;;;;5037944;28;43793;-64
2021/12/29 10:29:03;;;;;;;1.10;1.10;;;21.10;43.60;;;;;;5071594;28;43526;-64
2021/12/29 10:31:38;;;;;;;1.20;1.20;;;21.20;43.70;;;;;;5074941;27;43587;-63
2021/12/29 10:34:08;;;;;;;1.08;1.08;;;21.20;43.70;;;;;;5075196;28;44271;-63
2021/12/29 10:36:53;;;;;;;1.15;1.15;;;21.20;43.70;;;;;;5041246;28;44074;-64
2021/12/29 10:39:45;;;;;;;1.40;1.30;;;21.30;43.60;;;;;;5042752;28;43440;-62
2021/12/29 10:42:13;;;;;;;0.98;0.98;;;21.20;43.50;;;;;;5040965;28;43484;-65
2021/12/29 10:44:47;;;;;;;1.20;1.20;;;21.30;43.60;;;;;;5041829;28;45797;-62
2021/12/29 10:47:20;;;;;;;1.40;1.30;;;21.30;43.60;;;;;;5041935;28;43442;-63
2021/12/29 10:50:00;;;;;;;1.63;1.50;;;21.30;43.60;;;;;;5074315;27;43591;-63
2021/12/29 10:52:51;;;;;;;1.57;1.47;;;21.30;43.60;;;;;;5070286;28;43551;-64
2021/12/29 10:55:35;;;;;;;1.20;1.10;;;21.30;44.30;;;;;;5042472;28;43647;-63
2021/12/29 10:58:13;;;;;;;1.42;1.33;;;21.40;43.60;;;;;;5040695;28;43425;-63
2021/12/29 11:01:00;;;;;;;1.67;1.50;;;21.40;43.70;;;;;;5042071;28;43435;-63
2021/12/29 11:03:30;;;;;;;1.20;1.15;;;21.40;43.60;;;;;;5040293;28;43535;-63
2021/12/29 11:06:01;;;;;;;1.60;1.50;;;21.40;43.60;;;;;;5074901;28;44655;-62
2021/12/29 11:08:46;;;;;;;1.40;1.30;;;21.40;43.60;;;;;;5074195;28;43545;-62
2021/12/29 11:11:15;;;;;;;1.40;1.30;;;21.40;43.60;;;;;;5073860;27;43490;-62
2021/12/29 11:13:42;;;;;;;1.48;1.38;;;21.50;43.60;;;;;;5041309;28;43485;-64
2021/12/29 11:16:10;;;;;;;1.83;1.30;;;21.50;43.60;;;;;;5042243;28;44715;-63
2021/12/29 11:18:50;;;;;;;1.50;1.30;;;21.50;43.60;;;;;;5039468;28;43431;-66
2021/12/29 11:21:27;;;;;;;1.60;1.42;;;21.50;43.60;;;;;;5041591;28;43554;-63
2021/12/29 11:23:56;;;;;;;1.40;1.30;;;21.50;43.60;;;;;;5040879;28;43496;-63
2021/12/29 11:26:31;;;;;;;1.55;1.40;;;21.50;43.70;;;;;;5041843;28;44358;-64
2021/12/29 11:29:09;;;;;;;1.50;1.40;;;21.60;43.60;;;;;;5040411;28;43518;-64
2021/12/29 11:31:46;;;;;;;1.20;1.20;;;21.60;43.80;;;;;;5038419;28;43576;-64
2021/12/29 11:34:27;;;;;;;1.48;1.35;;;21.60;43.70;;;;;;5041699;28;43457;-63
2021/12/29 11:37:09;;;;;;;1.88;1.48;;;21.60;43.80;;;;;;5040353;28;43935;-63
2021/12/29 11:39:48;;;;;;;1.65;1.33;;;21.60;43.80;;;;;;5040043;28;43534;-63
2021/12/29 11:42:17;;;;;;;1.60;1.50;;;21.70;44.00;;;;;;5040173;28;43473;-63
2021/12/29 11:44:45;;;;;;;1.42;1.33;;;21.70;44.00;;;;;;5039178;28;44079;-63
2021/12/29 11:47:14;;;;;;;2.30;1.50;;;21.80;44.00;;;;;;5073460;27;43781;-63
2021/12/29 11:49:42;;;;;;;1.73;1.25;;;21.70;44.10;;;;;;5073495;28;43488;-64
2021/12/29 11:52:10;;;;;;;2.03;1.40;;;21.80;43.80;;;;;;5067779;28;43569;-64
2021/12/29 11:55:05;;;;;;;1.85;1.48;;;21.80;43.80;;;;;;5040024;28;43553;-64
2021/12/29 11:57:35;;;;;;;1.25;1.15;;;21.80;43.90;;;;;;5038441;28;43622;-63
2021/12/29 12:00:23;;;;;;;1.73;1.40;;;21.90;43.80;;;;;;5041027;28;43439;-65
2021/12/29 12:03:03;;;;;;;1.15;1.13;;;21.90;43.70;;;;;;5040592;28;43520;-63
2021/12/29 12:05:38;;;;;;;1.88;1.40;;;21.90;43.70;;;;;;5071291;27;43606;-65
2021/12/29 12:08:09;;;;;;;2.28;1.17;;;21.90;43.70;;;;;;5038073;28;45768;-64
2021/12/29 12:10:37;;;;;;;;;;;22.00;43.90;;;;;;5073305;28;43513;-62
2021/12/29 12:13:21;;;;;;;1.40;1.00;;;22.00;43.90;;;;;;5041619;28;43470;-65
2021/12/29 12:15:49;;;;;;;1.20;1.10;;;22.00;43.90;;;;;;5037843;28;43459;-64
2021/12/29 12:18:17;;;;;;;2.03;1.60;;;22.00;44.00;;;;;;5077152;27;43895;-64
2021/12/29 12:20:50;;;;;;;1.80;1.30;;;22.00;43.90;;;;;;5040485;28;44137;-64
2021/12/29 12:23:27;;;;;;;3.38;1.10;;;22.10;43.90;;;;;;5040566;28;43528;-64
2021/12/29 12:26:07;;;;;;;0.85;0.85;;;22.10;43.80;;;;;;5043297;28;43704;-63
2021/12/29 12:28:47;;;;;;;1.15;1.08;;;22.10;43.90;;;;;;5041058;28;44670;-64
2021/12/29 12:31:27;;;;;;;1.65;1.30;;;22.10;43.70;;;;;;5041947;28;43543;-62
2021/12/29 12:34:08;;;;;;;0.98;0.95;;;22.10;43.80;;;;;;5043564;28;43481;-65
2021/12/29 12:36:36;;;;;;;1.95;1.30;;;22.20;43.90;;;;;;5041659;28;43476;-63
2021/12/29 12:39:08;;;;;;;1.17;1.08;;;22.20;43.90;;;;;;5044319;28;43805;-64
2021/12/29 12:41:43;;;;;;;1.45;1.27;;;22.20;43.90;;;;;;5040665;28;43485;-63
2021/12/29 12:44:11;;;;;;;1.70;1.25;;;22.20;43.80;;;;;;5043263;28;43490;-62
2021/12/29 12:46:40;;;;;;;1.27;1.13;;;22.20;43.80;;;;;;5044972;28;43524;-64
2021/12/29 12:49:28;;;;;;;1.35;1.25;;;22.20;43.90;;;;;;5044486;28;43889;-63
2021/12/29 12:52:04;;;;;;;2.53;1.20;;;22.30;43.80;;;;;;5042480;28;43498;-62
2021/12/29 12:54:47;;;;;;;1.33;1.08;;;22.30;43.70;;;;;;5037935;28;43602;-62
2021/12/29 12:57:30;;;;;;;1.65;1.20;;;22.30;43.80;;;;;;5042290;28;43550;-62
2021/12/29 13:00:16;;;;;;;1.30;1.13;;;22.30;43.70;;;;;;5045568;28;43796;-62
2021/12/29 13:02:48;;;;;;;2.30;1.30;;;22.30;43.70;;;;;;5042301;28;44227;-63
2021/12/29 13:05:24;;;;;;;1.67;1.33;;;22.30;43.90;;;;;;5044551;28;43496;-63
2021/12/29 13:08:00;;;;;;;1.45;1.25;;;22.40;43.90;;;;;;5044075;28;43464;-64